Terminal Aerodrome Forecast
Issued by NWS Cleveland, OH

Current Version | Previous Version | Text Only | Print | Product List | Glossary On
Versions: 1 2 3 4 5 6 7 8 9 10 11 12 13
000
FTUS41 KCLE 282339
TAFMFD
TAF
KMFD 282339Z 2900/2924 VRB03KT P6SM SCT050 BKN250
     FM290200 15004KT P6SM FEW050 BKN250
     FM291500 22006KT P6SM SCT050 BKN150=

USA.gov is the U.S. government's official web portal to all federal, state and local government web resources and services.